Time;durP1;ratioP1;P1;durP2;ratioP2;P2;SDS_P1;SDS_P2;PMS_P1;PMS_P2;Temp;Humidity;BMP_temperature;BMP_pressure;BME280_temperature;BME280_humidity;BME280_pressure;Samples;Min_cycle;Max_cycle;Signal;HPM_P1;HPM_P2
2023/03/02 00:00:00;;;;;;;;;;;16.20;56.50;;;;;;10373350;28;93566;-71
2023/03/02 00:05:20;;;;;;;;;;;16.20;57.50;;;;;;10374936;28;93135;-71
2023/03/02 00:10:22;;;;;;;;;;;16.20;56.40;;;;;;10374404;28;93657;-71
2023/03/02 00:15:24;;;;;;;;;;;16.10;56.40;;;;;;10374432;28;94372;-71
2023/03/02 00:20:25;;;;;;;;;;;16.10;56.50;;;;;;10373375;28;94496;-71
2023/03/02 00:25:27;;;;;;;;;;;16.10;56.40;;;;;;10373597;28;94699;-72
2023/03/02 00:30:29;;;;;;;;;;;16.10;56.40;;;;;;10373643;28;93951;-71
2023/03/02 00:35:35;;;;;;;;;;;16.10;56.40;;;;;;10372272;28;93360;-72
2023/03/02 00:40:42;;;;;;;;;;;16.00;56.30;;;;;;10372613;28;94023;-72
2023/03/02 00:45:44;;;;;;;;;;;16.00;56.40;;;;;;10369294;28;95010;-72
2023/03/02 00:50:45;;;;;;;;;;;16.00;56.40;;;;;;10370708;28;93735;-72
2023/03/02 00:55:54;;;;;;;;;;;16.00;56.40;;;;;;10373523;28;93511;-72
2023/03/02 01:00:56;;;;;;;;;;;16.00;56.30;;;;;;10372381;28;94599;-72
2023/03/02 01:05:57;;;;;;;;;;;15.90;56.30;;;;;;10372064;28;93425;-72
2023/03/02 01:11:00;;;;;;;;;;;15.90;56.30;;;;;;10371799;28;94441;-71
2023/03/02 01:16:02;;;;;;;;;;;16.00;56.40;;;;;;10370255;28;93436;-71
2023/03/02 01:21:06;;;;;;;;;;;15.90;56.30;;;;;;10371500;28;92337;-71
2023/03/02 01:26:08;;;;;;;;;;;15.90;56.30;;;;;;10371516;28;96276;-71
2023/03/02 01:31:10;;;;;;;;;;;15.90;56.30;;;;;;10370989;28;93249;-72
2023/03/02 01:36:12;;;;;;;;;;;15.90;56.30;;;;;;10350805;28;96098;-72
2023/03/02 01:41:14;;;;;;;;;;;15.80;56.20;;;;;;10369773;28;93362;-71
2023/03/02 01:46:20;;;;;;;;;;;15.80;56.20;;;;;;10370385;28;93710;-72
2023/03/02 01:51:23;;;;;;;;;;;15.80;56.20;;;;;;10370437;28;93516;-71
2023/03/02 01:56:27;;;;;;;;;;;15.80;56.10;;;;;;10369942;28;93641;-72
2023/03/02 02:01:31;;;;;;;;;;;15.80;56.20;;;;;;10370283;28;93686;-72
2023/03/02 02:06:35;;;;;;;;;;;15.80;56.20;;;;;;10370038;28;94439;-71
2023/03/02 02:11:37;;;;;;;;;;;15.80;56.10;;;;;;10371039;28;93763;-72
2023/03/02 02:16:40;;;;;;;;;;;15.70;56.00;;;;;;10368747;28;93707;-71
2023/03/02 02:21:42;;;;;;;;;;;15.70;56.10;;;;;;10336097;28;93817;-71
2023/03/02 02:26:45;;;;;;;;;;;15.70;56.10;;;;;;10366023;28;95877;-71
2023/03/02 02:31:47;;;;;;;;;;;15.70;56.00;;;;;;10358023;28;93465;-71
2023/03/02 02:36:51;;;;;;;;;;;15.70;56.00;;;;;;10376838;28;94006;-72
2023/03/02 02:41:54;;;;;;;;;;;15.70;55.90;;;;;;10376022;28;93427;-72
2023/03/02 02:46:56;;;;;;;;;;;15.70;55.90;;;;;;10376624;28;92976;-73
2023/03/02 02:51:58;;;;;;;;;;;15.70;55.90;;;;;;10376053;28;94469;-71
2023/03/02 02:57:01;;;;;;;;;;;15.70;55.90;;;;;;10375540;28;93785;-71
2023/03/02 03:02:03;;;;;;;;;;;15.70;55.90;;;;;;10359139;28;93054;-71
2023/03/02 03:07:05;;;;;;;;;;;15.60;55.80;;;;;;10374863;28;92772;-71
2023/03/02 03:12:14;;;;;;;;;;;15.60;55.90;;;;;;10374658;28;93503;-71
2023/03/02 03:17:16;;;;;;;;;;;15.60;55.90;;;;;;10371436;28;95805;-71
2023/03/02 03:22:18;;;;;;;;;;;15.60;55.80;;;;;;10374654;28;94435;-72
2023/03/02 03:27:20;;;;;;;;;;;15.60;55.90;;;;;;10356292;28;93247;-71
2023/03/02 03:32:22;;;;;;;;;;;15.60;55.70;;;;;;10356639;28;93234;-71
2023/03/02 03:37:24;;;;;;;;;;;15.60;55.70;;;;;;10373378;28;93517;-71
2023/03/02 03:42:25;;;;;;;;;;;15.60;55.60;;;;;;10374035;28;93396;-72
2023/03/02 03:47:27;;;;;;;;;;;15.60;55.60;;;;;;10355928;28;93462;-71
2023/03/02 03:52:29;;;;;;;;;;;15.60;55.60;;;;;;10374851;28;93495;-71
2023/03/02 03:57:31;;;;;;;;;;;15.60;55.50;;;;;;10374020;28;93456;-72
2023/03/02 04:02:33;;;;;;;;;;;15.60;55.40;;;;;;10374351;28;94482;-71
2023/03/02 04:07:35;;;;;;;;;;;15.60;55.40;;;;;;10371927;28;96661;-72
2023/03/02 04:12:38;;;;;;;;;;;15.60;55.40;;;;;;10373154;28;93490;-69
2023/03/02 04:17:42;;;;;;;;;;;15.50;55.30;;;;;;10374094;28;92607;-71
2023/03/02 04:22:45;;;;;;;;;;;15.60;55.40;;;;;;10372900;28;93343;-71
2023/03/02 04:27:47;;;;;;;;;;;15.50;55.30;;;;;;10372929;28;94722;-72
2023/03/02 04:32:49;;;;;;;;;;;15.50;55.30;;;;;;10371953;28;93594;-72
2023/03/02 04:37:51;;;;;;;;;;;15.50;55.30;;;;;;10373714;28;93264;-71
2023/03/02 04:42:52;;;;;;;;;;;15.40;55.30;;;;;;10372786;28;92810;-72
2023/03/02 06:06:45;;;;;;;;;;;15.90;54.70;;;;;;10280738;28;96074;-67
2023/03/02 06:11:47;;;;;;;;;;;15.90;54.40;;;;;;10288688;28;93909;-68
2023/03/02 06:16:49;;;;;;;;;;;16.00;54.40;;;;;;10269760;28;93189;-68
2023/03/02 06:21:50;;;;;;;;;;;16.20;54.30;;;;;;10284680;28;94567;-68
2023/03/02 06:26:53;;;;;;;;;;;16.30;54.10;;;;;;10287159;28;93314;-68
2023/03/02 06:31:54;;;;;;;;;;;16.50;53.90;;;;;;10287450;28;94077;-68
2023/03/02 06:36:56;;;;;;;;;;;16.50;53.70;;;;;;10270458;28;94401;-68
2023/03/02 06:41:59;;;;;;;;;;;16.50;53.70;;;;;;10270141;28;93111;-69
2023/03/02 06:47:00;;;;;;;;;;;16.50;53.80;;;;;;10286943;28;93111;-69
2023/03/02 06:52:02;;;;;;;;;;;16.50;54.00;;;;;;10283303;28;93829;-69
2023/03/02 06:57:04;;;;;;;;;;;16.50;54.20;;;;;;10285535;28;95908;-69
2023/03/02 07:02:08;;;;;;;;;;;16.50;54.30;;;;;;10285594;28;94737;-69
2023/03/02 07:07:10;;;;;;;;;;;16.50;54.30;;;;;;10287741;28;94620;-68
2023/03/02 07:12:11;;;;;;;;;;;16.50;54.50;;;;;;10286955;28;93387;-68
2023/03/02 07:17:13;;;;;;;;;;;16.50;54.60;;;;;;10291931;28;92951;-69
2023/03/02 07:22:15;;;;;;;;;;;16.40;54.70;;;;;;10292266;28;94479;-69
2023/03/02 07:27:16;;;;;;;;;;;16.40;55.00;;;;;;10290638;28;93462;-68
2023/03/02 07:32:18;;;;;;;;;;;16.30;55.10;;;;;;10293395;28;92615;-68
2023/03/02 07:37:20;;;;;;;;;;;16.30;55.50;;;;;;10292879;28;94993;-69
2023/03/02 07:42:21;;;;;;;;;;;16.20;55.80;;;;;;10274569;28;93704;-69
2023/03/02 07:47:23;;;;;;;;;;;16.10;56.10;;;;;;10288376;28;95759;-70
2023/03/02 07:52:24;;;;;;;;;;;16.10;56.30;;;;;;10272687;28;93791;-71
2023/03/02 07:57:26;;;;;;;;;;;16.00;56.20;;;;;;10291094;28;93517;-70
2023/03/02 08:02:29;;;;;;;;;;;16.00;56.00;;;;;;10291963;28;93499;-71
2023/03/02 08:07:31;;;;;;;;;;;15.90;56.10;;;;;;10291928;28;93507;-71
2023/03/02 08:12:33;;;;;;;;;;;15.90;57.30;;;;;;10273235;28;94118;-69
2023/03/02 08:17:35;;;;;;;;;;;15.90;57.90;;;;;;10290907;28;93395;-71
2023/03/02 08:22:37;;;;;;;;;;;15.90;58.20;;;;;;10291850;28;92700;-74
2023/03/02 08:27:39;;;;;;;;;;;15.90;59.00;;;;;;10270999;28;93512;-71
2023/03/02 08:32:40;;;;;;;;;;;15.90;59.30;;;;;;10289946;28;93462;-67
2023/03/02 08:37:42;;;;;;;;;;;15.90;58.50;;;;;;10284426;28;97327;-67
2023/03/02 08:42:44;;;;;;;;;;;15.80;58.40;;;;;;10290473;28;94519;-67
2023/03/02 08:47:45;;;;;;;;;;;15.80;58.30;;;;;;10290327;28;94088;-67
2023/03/02 08:52:47;;;;;;;;;;;15.70;58.50;;;;;;10291453;28;93290;-67
2023/03/02 08:57:49;;;;;;;;;;;15.70;58.50;;;;;;10289123;28;93074;-68
2023/03/02 09:02:50;;;;;;;;;;;15.60;58.40;;;;;;10290584;28;93530;-68
2023/03/02 09:07:52;;;;;;;;;;;15.60;58.40;;;;;;10290982;28;94412;-67
2023/03/02 09:12:54;;;;;;;;;;;15.50;58.30;;;;;;10290368;28;92723;-67
2023/03/02 09:17:56;;;;;;;;;;;15.50;58.20;;;;;;10271708;28;93272;-67
2023/03/02 09:22:58;;;;;;;;;;;15.50;58.30;;;;;;10272176;28;94362;-67
2023/03/02 09:27:59;;;;;;;;;;;15.50;58.40;;;;;;10286576;28;96250;-66
2023/03/02 09:33:01;;;;;;;;;;;15.50;58.30;;;;;;10288958;28;94090;-68
2023/03/02 09:38:03;;;;;;;;;;;15.40;58.10;;;;;;10271006;28;94809;-67
2023/03/02 09:43:11;;;;;;;;;;;15.40;58.20;;;;;;10288472;28;93805;-67
2023/03/02 09:48:18;;;;;;;;;;;15.40;58.10;;;;;;10287993;28;94484;-66
2023/03/02 09:53:23;;;;;;;;;;;15.40;58.10;;;;;;10288570;28;93384;-66
2023/03/02 09:58:28;;;;;;;;;;;15.40;58.00;;;;;;10280206;28;92710;-68
2023/03/02 10:03:43;;;;;;;;;;;15.40;58.00;;;;;;10272792;28;93928;-67
2023/03/02 10:08:47;;;;;;;;;;;15.40;58.00;;;;;;10290436;28;93657;-68
2023/03/02 10:14:21;;;;;;;;;;;15.40;58.10;;;;;;10270094;28;93686;-68
2023/03/02 10:19:26;;;;;;;;;;;15.40;58.10;;;;;;10248822;28;96292;-68
2023/03/02 10:24:34;;;;;;;;;;;15.40;58.00;;;;;;10287498;28;94384;-66
2023/03/02 10:29:46;;;;;;;;;;;15.40;58.00;;;;;;10270646;28;94513;-68
2023/03/02 10:34:48;;;;;;;;;;;15.50;58.00;;;;;;10287107;28;94478;-66
2023/03/02 10:39:51;;;;;;;;;;;15.40;57.80;;;;;;10287862;28;93520;-68
2023/03/02 10:44:54;;;;;;;;;;;15.50;57.90;;;;;;10286960;28;93483;-67
2023/03/02 10:49:56;;;;;;;;;;;15.50;57.60;;;;;;10290076;28;93576;-68
2023/03/02 10:55:06;;;;;;;;;;;15.50;57.60;;;;;;10277777;28;92129;-67
2023/03/02 11:00:24;;;;;;;;;;;15.50;57.70;;;;;;10294629;28;93154;-68
2023/03/02 11:05:32;;;;;;;;;;;15.50;57.60;;;;;;10276585;28;93277;-67
2023/03/02 11:11:00;;;;;;;;;;;15.60;57.60;;;;;;10290374;28;95928;-67
2023/03/02 11:16:03;;;;;;;;;;;15.50;57.40;;;;;;10290587;28;93971;-67
2023/03/02 11:21:09;;;;;;;;;;;15.60;57.40;;;;;;10292928;28;93847;-68
2023/03/02 11:26:23;;;;;;;;;;;15.60;57.30;;;;;;10293645;28;94342;-67
2023/03/02 11:31:42;;;;;;;;;;;15.60;57.20;;;;;;10294921;28;94595;-68
2023/03/02 11:36:49;;;;;;;;;;;15.60;58.20;;;;;;10294417;28;93447;-67
2023/03/02 11:41:52;;;;;;;;;;;15.60;57.10;;;;;;10292508;28;94443;-68
2023/03/02 11:46:59;;;;;;;;;;;15.60;57.10;;;;;;10293157;28;92961;-67
2023/03/02 11:52:01;;;;;;;;;;;15.60;57.00;;;;;;10292126;28;94536;-67
2023/03/02 11:57:03;;;;;;;;;;;15.60;57.00;;;;;;10274214;28;93354;-68
2023/03/02 12:02:10;;;;;;;;;;;15.60;57.00;;;;;;10272594;28;96194;-68
2023/03/02 12:07:16;;;;;;;;;;;15.70;57.00;;;;;;10273730;28;92503;-68
2023/03/02 12:12:21;;;;;;;;;;;15.60;57.20;;;;;;10291694;28;94986;-68
2023/03/02 12:17:25;;;;;;;;;;;15.60;57.30;;;;;;10292055;28;94540;-68
2023/03/02 12:22:29;;;;;;;;;;;15.70;57.40;;;;;;10291581;28;94528;-68
2023/03/02 12:27:36;;;;;;;;;;;15.60;57.40;;;;;;10273584;28;93892;-67
2023/03/02 12:32:38;;;;;;;;;;;15.60;57.40;;;;;;10291162;28;94445;-66
2023/03/02 12:38:00;;;;;;;;;;;15.70;57.50;;;;;;10273434;28;92808;-67
2023/03/02 12:43:02;;;;;;;;;;;15.60;57.50;;;;;;10291074;28;93567;-67
2023/03/02 12:48:14;;;;;;;;;;;15.70;57.60;;;;;;10281626;28;93520;-67
2023/03/02 12:53:17;;;;;;;;;;;15.60;57.50;;;;;;10288731;28;96808;-68
2023/03/02 12:58:21;;;;;;;;;;;15.70;57.60;;;;;;10273883;28;94430;-68
2023/03/02 13:03:23;;;;;;;;;;;15.70;57.60;;;;;;10290618;28;94294;-67
2023/03/02 13:08:27;;;;;;;;;;;15.60;57.60;;;;;;10291136;28;94269;-68
2023/03/02 13:13:40;;;;;;;;;;;15.60;57.60;;;;;;10289373;28;94465;-68
2023/03/02 13:18:41;;;;;;;;;;;15.60;57.70;;;;;;10290752;28;93546;-68
2023/03/02 13:23:44;;;;;;;;;;;15.60;57.70;;;;;;10289989;28;94128;-68
2023/03/02 13:28:46;;;;;;;;;;;15.60;57.70;;;;;;10291063;28;92585;-68
2023/03/02 13:33:49;;;;;;;;;;;15.60;57.70;;;;;;10290763;28;93144;-67
2023/03/02 13:38:52;;;;;;;;;;;15.60;57.80;;;;;;10292172;28;93532;-67
2023/03/02 13:43:54;;;;;;;;;;;15.70;57.80;;;;;;10287937;28;96063;-68
2023/03/02 13:48:57;;;;;;;;;;;15.70;57.80;;;;;;10271852;28;93535;-68
2023/03/02 13:54:24;;;;;;;;;;;15.70;57.80;;;;;;10289869;28;93314;-68
2023/03/02 13:59:26;;;;;;;;;;;15.70;57.80;;;;;;10288863;28;94498;-68
2023/03/02 14:04:27;;;;;;;;;;;15.70;57.80;;;;;;10289087;28;94443;-68
2023/03/02 14:09:29;;;;;;;;;;;15.70;57.80;;;;;;10288959;28;94349;-68
2023/03/02 14:14:34;;;;;;;;;;;15.70;57.80;;;;;;10289870;28;93257;-68
2023/03/02 14:19:36;;;;;;;;;;;15.70;57.80;;;;;;10272350;28;92780;-68
2023/03/02 14:24:38;;;;;;;;;;;15.70;58.00;;;;;;10291912;28;94488;-69
2023/03/02 14:29:39;;;;;;;;;;;15.80;58.00;;;;;;10294646;28;92888;-69
2023/03/02 14:34:41;;;;;;;;;;;15.80;58.00;;;;;;10292895;28;95507;-67
2023/03/02 14:39:49;;;;;;;;;;;15.80;58.00;;;;;;10297711;28;93940;-68
2023/03/02 14:44:52;;;;;;;;;;;15.80;58.00;;;;;;10294907;28;94722;-68
2023/03/02 14:49:54;;;;;;;;;;;15.80;57.90;;;;;;10293975;28;94312;-68
2023/03/02 14:54:57;;;;;;;;;;;15.80;58.00;;;;;;10276608;28;93337;-68
2023/03/02 14:59:59;;;;;;;;;;;15.80;58.00;;;;;;10293719;28;93464;-67
2023/03/02 15:05:01;;;;;;;;;;;15.80;58.00;;;;;;10293496;28;93518;-68
2023/03/02 15:10:03;;;;;;;;;;;15.80;58.00;;;;;;10295707;28;93706;-67
2023/03/02 15:15:06;;;;;;;;;;;15.80;58.00;;;;;;10293744;28;94178;-68
2023/03/02 15:20:12;;;;;;;;;;;15.80;58.00;;;;;;10292257;28;93505;-68
2023/03/02 15:25:13;;;;;;;;;;;15.80;58.00;;;;;;10290332;28;96933;-67
2023/03/02 15:30:16;;;;;;;;;;;15.80;58.10;;;;;;10293297;28;94285;-68
2023/03/02 15:35:18;;;;;;;;;;;15.70;58.00;;;;;;10292598;28;94427;-68
2023/03/02 15:40:20;;;;;;;;;;;15.70;58.00;;;;;;10292056;28;93695;-68
2023/03/02 15:45:21;;;;;;;;;;;15.70;58.10;;;;;;10291745;28;93059;-68
2023/03/02 15:50:23;;;;;;;;;;;15.70;58.10;;;;;;10268964;28;94358;-67
2023/03/02 15:55:25;;;;;;;;;;;15.70;58.10;;;;;;10291612;28;93522;-68
2023/03/02 16:00:28;;;;;;;;;;;15.70;58.10;;;;;;10293328;28;92957;-69
2023/03/02 16:05:29;;;;;;;;;;;15.70;58.10;;;;;;10291412;28;92964;-67
2023/03/02 16:10:34;;;;;;;;;;;15.70;58.10;;;;;;10291442;28;93469;-68
2023/03/02 16:15:38;;;;;;;;;;;15.70;58.20;;;;;;10271601;28;95834;-68
2023/03/02 16:20:40;;;;;;;;;;;15.80;58.20;;;;;;10291074;28;93515;-67
2023/03/02 16:25:43;;;;;;;;;;;16.00;58.30;;;;;;10292196;28;94741;-68
2023/03/02 16:30:45;;;;;;;;;;;16.30;57.80;;;;;;10292228;28;94330;-67
2023/03/02 16:35:48;;;;;;;;;;;16.70;57.10;;;;;;10291139;28;93902;-67
2023/03/02 16:40:51;;;;;;;;;;;17.00;56.50;;;;;;10290835;28;93544;-69
2023/03/02 16:45:53;;;;;;;;;;;17.20;55.70;;;;;;10289338;28;93257;-69
2023/03/02 16:50:56;;;;;;;;;;;17.30;56.20;;;;;;10290645;28;92778;-70
2023/03/02 16:55:57;;;;;;;;;;;17.30;62.20;;;;;;10291655;28;93521;-67
2023/03/02 17:00:59;;;;;;;;;;;17.30;63.40;;;;;;10289501;28;93621;-67
2023/03/02 17:06:03;;;;;;;;;;;17.30;63.80;;;;;;10270073;28;95100;-70
2023/03/02 17:11:05;;;;;;;;;;;17.40;65.40;;;;;;10289013;28;93433;-70
2023/03/02 17:16:07;;;;;;;;;;;17.40;66.50;;;;;;10289809;28;93796;-70
2023/03/02 17:21:09;;;;;;;;;;;17.50;64.80;;;;;;10289481;28;95093;-69
2023/03/02 17:26:10;;;;;;;;;;;17.60;64.10;;;;;;10288677;28;94109;-69
2023/03/02 17:31:12;;;;;;;;;;;17.70;63.70;;;;;;10289770;28;93438;-69
2023/03/02 17:36:14;;;;;;;;;;;17.80;63.10;;;;;;10289095;28;93240;-70
2023/03/02 17:41:16;;;;;;;;;;;17.80;62.80;;;;;;10289879;28;92967;-69
2023/03/02 17:46:19;;;;;;;;;;;17.70;63.20;;;;;;10288802;28;93709;-69
2023/03/02 17:51:22;;;;;;;;;;;17.80;63.30;;;;;;10287398;28;92678;-70
2023/03/02 17:56:24;;;;;;;;;;;17.80;63.00;;;;;;10285215;28;96843;-69
2023/03/02 18:01:27;;;;;;;;;;;17.80;62.40;;;;;;10285500;28;95011;-69
2023/03/02 18:06:29;;;;;;;;;;;17.80;62.10;;;;;;10286979;28;94099;-69
2023/03/02 18:11:31;;;;;;;;;;;17.80;61.80;;;;;;10270514;28;93537;-69
2023/03/02 18:16:34;;;;;;;;;;;17.80;61.50;;;;;;10270623;28;93378;-69
2023/03/02 18:21:38;;;;;;;;;;;17.70;61.60;;;;;;10267659;28;93697;-70
2023/03/02 18:26:40;;;;;;;;;;;17.70;61.30;;;;;;10266692;28;93495;-70
2023/03/02 18:31:42;;;;;;;;;;;17.80;61.20;;;;;;10286600;28;93493;-69
2023/03/02 18:36:44;;;;;;;;;;;17.90;61.10;;;;;;10269770;28;94688;-69
2023/03/02 18:41:45;;;;;;;;;;;18.00;60.80;;;;;;10284847;28;93407;-69
2023/03/02 18:46:47;;;;;;;;;;;18.10;60.50;;;;;;10284158;28;96105;-69
2023/03/02 18:51:49;;;;;;;;;;;18.10;60.20;;;;;;10286224;28;94186;-69
2023/03/02 18:56:51;;;;;;;;;;;18.10;60.10;;;;;;10287564;28;94446;-69
2023/03/02 19:01:53;;;;;;;;;;;18.10;60.10;;;;;;10286055;28;93655;-69
2023/03/02 19:06:55;;;;;;;;;;;18.10;60.90;;;;;;10285594;28;94026;-69
2023/03/02 19:11:56;;;;;;;;;;;18.10;60.00;;;;;;10271206;28;93633;-67
2023/03/02 19:16:58;;;;;;;;;;;18.00;60.10;;;;;;10292617;28;94447;-69
2023/03/02 19:22:00;;;;;;;;;;;18.00;61.30;;;;;;10292934;28;92610;-69
2023/03/02 19:27:02;;;;;;;;;;;18.10;60.80;;;;;;10275049;28;94637;-70
2023/03/02 19:32:06;;;;;;;;;;;18.10;60.50;;;;;;10291868;28;93151;-69
2023/03/02 19:37:07;;;;;;;;;;;18.10;60.20;;;;;;10289679;28;95833;-70
2023/03/02 19:42:10;;;;;;;;;;;18.10;60.10;;;;;;10292380;28;93869;-70
2023/03/02 19:47:11;;;;;;;;;;;18.00;60.10;;;;;;10291469;28;93429;-70
2023/03/02 19:52:13;;;;;;;;;;;18.10;60.00;;;;;;10270676;28;93250;-71
2023/03/02 19:57:15;;;;;;;;;;;18.10;59.60;;;;;;10289886;28;93695;-74
2023/03/02 20:02:18;;;;;;;;;;;18.10;59.40;;;;;;10291745;28;94844;-71
2023/03/02 20:07:20;;;;;;;;;;;18.10;59.20;;;;;;10290564;28;94349;-71
2023/03/02 20:12:22;;;;;;;;;;;18.10;59.20;;;;;;10274030;28;92727;-71
2023/03/02 20:17:23;;;;;;;;;;;18.10;59.40;;;;;;10289984;28;94005;-71
2023/03/02 20:22:25;;;;;;;;;;;18.10;59.40;;;;;;10290902;28;95156;-71
2023/03/02 20:27:27;;;;;;;;;;;18.20;59.20;;;;;;10285186;28;96063;-71
2023/03/02 20:32:29;;;;;;;;;;;18.30;59.10;;;;;;10282922;28;94413;-71
2023/03/02 20:37:31;;;;;;;;;;;18.30;59.10;;;;;;10286066;28;94443;-71
2023/03/02 20:42:34;;;;;;;;;;;18.20;59.20;;;;;;10290373;28;93593;-71
2023/03/02 20:47:36;;;;;;;;;;;18.10;59.30;;;;;;10271118;28;93524;-71
2023/03/02 20:52:38;;;;;;;;;;;18.00;59.40;;;;;;10287940;28;94498;-70
2023/03/02 20:57:40;;;;;;;;;;;18.00;59.40;;;;;;10288821;28;93701;-70
2023/03/02 21:02:42;;;;;;;;;;;17.80;59.30;;;;;;10289885;28;93553;-70
2023/03/02 21:07:44;;;;;;;;;;;17.80;59.30;;;;;;10288742;28;92978;-70
2023/03/02 21:12:47;;;;;;;;;;;17.60;59.20;;;;;;10287594;28;93337;-71
2023/03/02 21:17:49;;;;;;;;;;;17.50;59.20;;;;;;10285689;28;95855;-70
2023/03/02 21:22:51;;;;;;;;;;;17.40;59.20;;;;;;10288029;28;93417;-71
2023/03/02 21:27:53;;;;;;;;;;;17.40;59.20;;;;;;10288164;28;93006;-70
2023/03/02 21:32:55;;;;;;;;;;;17.30;59.20;;;;;;10287095;28;94512;-70
2023/03/02 21:37:58;;;;;;;;;;;17.20;59.30;;;;;;10289183;28;93207;-70
2023/03/02 21:43:00;;;;;;;;;;;17.20;59.30;;;;;;10288252;28;93491;-71
2023/03/02 21:48:02;;;;;;;;;;;17.10;59.30;;;;;;10269757;28;92678;-71
2023/03/02 21:53:04;;;;;;;;;;;17.00;59.30;;;;;;10288751;28;93293;-70
2023/03/02 21:58:06;;;;;;;;;;;17.00;59.30;;;;;;10270832;28;93796;-71
2023/03/02 22:03:08;;;;;;;;;;;16.90;59.20;;;;;;10287533;28;93550;-71
2023/03/02 22:08:14;;;;;;;;;;;16.90;59.30;;;;;;10283929;28;96337;-70
2023/03/02 22:13:23;;;;;;;;;;;16.80;59.20;;;;;;10286400;28;92484;-70
2023/03/02 22:18:25;;;;;;;;;;;16.80;59.00;;;;;;10270699;28;94490;-70
2023/03/02 22:23:27;;;;;;;;;;;16.80;59.00;;;;;;10271801;28;95093;-70
2023/03/02 22:28:38;;;;;;;;;;;16.70;59.00;;;;;;10269094;28;114000;-70
2023/03/02 22:33:40;;;;;;;;;;;16.70;58.90;;;;;;10270369;28;94582;-70
2023/03/02 22:38:41;;;;;;;;;;;16.70;58.80;;;;;;10269666;28;93558;-71
2023/03/02 22:43:44;;;;;;;;;;;16.60;58.80;;;;;;10288340;28;92306;-71
2023/03/02 22:48:47;;;;;;;;;;;16.60;58.60;;;;;;10276667;28;94636;-71
2023/03/02 22:53:50;;;;;;;;;;;16.50;58.70;;;;;;10294968;28;95163;-70
2023/03/02 22:58:52;;;;;;;;;;;16.50;58.70;;;;;;10248836;28;95763;-70
2023/03/02 23:04:06;;;;;;;;;;;16.50;58.60;;;;;;10236396;28;93791;-71
2023/03/02 23:09:08;;;;;;;;;;;16.40;58.40;;;;;;10253902;28;94049;-70
2023/03/02 23:14:16;;;;;;;;;;;16.40;58.30;;;;;;10253156;28;93536;-71
2023/03/02 23:19:19;;;;;;;;;;;16.40;58.30;;;;;;10253322;28;93340;-71
2023/03/02 23:24:21;;;;;;;;;;;16.40;58.30;;;;;;10252200;28;93496;-71
2023/03/02 23:29:22;;;;;;;;;;;16.30;58.20;;;;;;10233676;28;93445;-70
2023/03/02 23:34:24;;;;;;;;;;;16.30;58.20;;;;;;10252652;28;92689;-70
2023/03/02 23:39:26;;;;;;;;;;;16.30;58.10;;;;;;10251838;28;94845;-71
2023/03/02 23:44:28;;;;;;;;;;;16.20;58.00;;;;;;10252104;28;93442;-70
2023/03/02 23:49:30;;;;;;;;;;;16.30;58.00;;;;;;10267263;28;95489;-71
2023/03/02 23:54:32;;;;;;;;;;;16.20;58.00;;;;;;10291893;28;93880;-70
2023/03/02 23:59:34;;;;;;;;;;;16.20;58.00;;;;;;10291429;28;94730;-70
